sensor_id;sensor_type;location;lat;lon;timestamp;P1;durP1;ratioP1;P2;durP2;ratioP2
40595;SDS011;26304;48.794;9.820;2022-09-16T00:02:06;3.72;;;2.67;;
40595;SDS011;26304;48.794;9.820;2022-09-16T00:07:48;4.68;;;2.90;;
40595;SDS011;26304;48.794;9.820;2022-09-16T00:13:31;2.70;;;2.50;;
40595;SDS011;26304;48.794;9.820;2022-09-16T00:19:14;3.20;;;2.90;;
40595;SDS011;26304;48.794;9.820;2022-09-16T00:24:57;3.55;;;2.80;;
40595;SDS011;26304;48.794;9.820;2022-09-16T00:30:39;2.85;;;2.65;;
40595;SDS011;26304;48.794;9.820;2022-09-16T00:36:23;2.75;;;2.55;;
40595;SDS011;26304;48.794;9.820;2022-09-16T00:42:06;2.53;;;2.33;;
40595;SDS011;26304;48.794;9.820;2022-09-16T00:47:49;3.70;;;3.03;;
40595;SDS011;26304;48.794;9.820;2022-09-16T00:53:36;3.67;;;3.15;;
40595;SDS011;26304;48.794;9.820;2022-09-16T00:59:23;3.53;;;2.90;;
40595;SDS011;26304;48.794;9.820;2022-09-16T01:05:09;4.07;;;2.97;;
40595;SDS011;26304;48.794;9.820;2022-09-16T01:10:54;2.70;;;2.60;;
40595;SDS011;26304;48.794;9.820;2022-09-16T01:16:37;4.00;;;3.40;;
40595;SDS011;26304;48.794;9.820;2022-09-16T01:22:29;3.40;;;3.10;;
40595;SDS011;26304;48.794;9.820;2022-09-16T01:28:35;3.45;;;3.25;;
40595;SDS011;26304;48.794;9.820;2022-09-16T01:34:34;3.42;;;3.22;;
40595;SDS011;26304;48.794;9.820;2022-09-16T01:40:26;2.70;;;2.50;;
40595;SDS011;26304;48.794;9.820;2022-09-16T01:46:18;3.60;;;3.30;;
40595;SDS011;26304;48.794;9.820;2022-09-16T01:52:08;3.40;;;3.10;;
40595;SDS011;26304;48.794;9.820;2022-09-16T01:58:00;3.30;;;3.10;;
40595;SDS011;26304;48.794;9.820;2022-09-16T02:03:50;3.95;;;3.00;;
40595;SDS011;26304;48.794;9.820;2022-09-16T02:09:40;3.33;;;3.00;;
40595;SDS011;26304;48.794;9.820;2022-09-16T02:15:27;3.58;;;3.20;;
40595;SDS011;26304;48.794;9.820;2022-09-16T02:21:14;3.63;;;3.33;;
40595;SDS011;26304;48.794;9.820;2022-09-16T02:26:59;3.33;;;3.13;;
40595;SDS011;26304;48.794;9.820;2022-09-16T02:32:45;3.40;;;3.13;;
40595;SDS011;26304;48.794;9.820;2022-09-16T02:38:32;3.33;;;2.88;;
40595;SDS011;26304;48.794;9.820;2022-09-16T02:44:20;3.55;;;3.25;;
40595;SDS011;26304;48.794;9.820;2022-09-16T02:50:03;4.75;;;3.33;;
40595;SDS011;26304;48.794;9.820;2022-09-16T02:55:55;5.55;;;3.53;;
40595;SDS011;26304;48.794;9.820;2022-09-16T03:01:45;3.92;;;3.63;;
40595;SDS011;26304;48.794;9.820;2022-09-16T03:07:27;3.60;;;3.30;;
40595;SDS011;26304;48.794;9.820;2022-09-16T03:13:11;3.30;;;3.10;;
40595;SDS011;26304;48.794;9.820;2022-09-16T03:19:03;3.65;;;3.35;;
40595;SDS011;26304;48.794;9.820;2022-09-16T03:24:57;3.58;;;2.75;;
40595;SDS011;26304;48.794;9.820;2022-09-16T03:30:46;3.45;;;3.25;;
40595;SDS011;26304;48.794;9.820;2022-09-16T03:36:36;3.33;;;3.00;;
40595;SDS011;26304;48.794;9.820;2022-09-16T03:42:24;2.75;;;2.55;;
40595;SDS011;26304;48.794;9.820;2022-09-16T03:48:07;3.05;;;2.78;;
40595;SDS011;26304;48.794;9.820;2022-09-16T03:53:51;4.55;;;2.67;;
40595;SDS011;26304;48.794;9.820;2022-09-16T03:59:34;3.60;;;2.75;;
40595;SDS011;26304;48.794;9.820;2022-09-16T04:05:16;3.10;;;2.90;;
40595;SDS011;26304;48.794;9.820;2022-09-16T04:11:01;3.60;;;3.15;;
40595;SDS011;26304;48.794;9.820;2022-09-16T04:16:45;3.33;;;3.00;;
40595;SDS011;26304;48.794;9.820;2022-09-16T04:22:28;3.08;;;2.55;;
40595;SDS011;26304;48.794;9.820;2022-09-16T04:28:11;3.38;;;2.97;;
40595;SDS011;26304;48.794;9.820;2022-09-16T04:33:54;4.13;;;2.92;;
40595;SDS011;26304;48.794;9.820;2022-09-16T04:39:37;3.65;;;3.35;;
40595;SDS011;26304;48.794;9.820;2022-09-16T04:45:20;3.28;;;3.08;;
40595;SDS011;26304;48.794;9.820;2022-09-16T04:51:03;3.10;;;2.90;;
40595;SDS011;26304;48.794;9.820;2022-09-16T04:56:48;3.42;;;3.20;;
40595;SDS011;26304;48.794;9.820;2022-09-16T05:02:31;3.13;;;2.92;;
40595;SDS011;26304;48.794;9.820;2022-09-16T05:08:14;3.30;;;3.00;;
40595;SDS011;26304;48.794;9.820;2022-09-16T05:13:57;5.68;;;3.20;;
40595;SDS011;26304;48.794;9.820;2022-09-16T05:19:41;3.47;;;3.08;;
40595;SDS011;26304;48.794;9.820;2022-09-16T05:25:23;4.20;;;3.42;;
40595;SDS011;26304;48.794;9.820;2022-09-16T05:31:06;4.07;;;3.70;;
40595;SDS011;26304;48.794;9.820;2022-09-16T05:36:51;4.32;;;3.63;;
40595;SDS011;26304;48.794;9.820;2022-09-16T05:42:34;4.40;;;3.28;;
40595;SDS011;26304;48.794;9.820;2022-09-16T05:48:16;3.55;;;3.25;;
40595;SDS011;26304;48.794;9.820;2022-09-16T05:54:00;4.85;;;3.50;;
40595;SDS011;26304;48.794;9.820;2022-09-16T05:59:43;3.88;;;3.58;;
40595;SDS011;26304;48.794;9.820;2022-09-16T06:05:25;3.75;;;3.45;;
40595;SDS011;26304;48.794;9.820;2022-09-16T06:11:09;3.28;;;3.08;;
40595;SDS011;26304;48.794;9.820;2022-09-16T06:16:53;3.72;;;3.33;;
40595;SDS011;26304;48.794;9.820;2022-09-16T06:22:35;3.70;;;3.42;;
40595;SDS011;26304;48.794;9.820;2022-09-16T06:28:21;4.38;;;3.50;;
40595;SDS011;26304;48.794;9.820;2022-09-16T06:34:03;3.78;;;3.47;;
40595;SDS011;26304;48.794;9.820;2022-09-16T06:39:46;4.28;;;3.88;;
40595;SDS011;26304;48.794;9.820;2022-09-16T06:45:30;4.50;;;4.10;;
40595;SDS011;26304;48.794;9.820;2022-09-16T06:51:13;4.32;;;3.90;;
40595;SDS011;26304;48.794;9.820;2022-09-16T06:56:56;5.82;;;4.10;;
40595;SDS011;26304;48.794;9.820;2022-09-16T07:02:40;4.47;;;4.13;;
40595;SDS011;26304;48.794;9.820;2022-09-16T07:08:22;3.78;;;3.45;;
40595;SDS011;26304;48.794;9.820;2022-09-16T07:14:06;3.97;;;3.53;;
40595;SDS011;26304;48.794;9.820;2022-09-16T07:19:50;3.58;;;3.28;;
40595;SDS011;26304;48.794;9.820;2022-09-16T07:25:32;4.38;;;3.35;;
40595;SDS011;26304;48.794;9.820;2022-09-16T07:31:16;3.20;;;2.83;;
40595;SDS011;26304;48.794;9.820;2022-09-16T07:37:05;2.60;;;2.40;;
40595;SDS011;26304;48.794;9.820;2022-09-16T07:42:47;2.55;;;2.05;;
40595;SDS011;26304;48.794;9.820;2022-09-16T07:48:30;2.78;;;2.00;;
40595;SDS011;26304;48.794;9.820;2022-09-16T07:54:16;1.80;;;1.70;;
40595;SDS011;26304;48.794;9.820;2022-09-16T08:00:00;2.50;;;2.30;;
40595;SDS011;26304;48.794;9.820;2022-09-16T08:05:42;4.45;;;3.28;;
40595;SDS011;26304;48.794;9.820;2022-09-16T08:11:26;5.00;;;3.85;;
40595;SDS011;26304;48.794;9.820;2022-09-16T08:17:09;4.25;;;2.92;;
40595;SDS011;26304;48.794;9.820;2022-09-16T08:22:52;3.63;;;2.85;;
40595;SDS011;26304;48.794;9.820;2022-09-16T08:28:36;4.25;;;3.05;;
40595;SDS011;26304;48.794;9.820;2022-09-16T08:34:19;4.55;;;2.65;;
40595;SDS011;26304;48.794;9.820;2022-09-16T08:40:02;2.78;;;2.58;;
40595;SDS011;26304;48.794;9.820;2022-09-16T08:45:49;2.15;;;1.95;;
40595;SDS011;26304;48.794;9.820;2022-09-16T08:51:37;2.03;;;1.83;;
40595;SDS011;26304;48.794;9.820;2022-09-16T08:57:21;2.30;;;2.10;;
40595;SDS011;26304;48.794;9.820;2022-09-16T09:03:12;3.78;;;2.28;;
40595;SDS011;26304;48.794;9.820;2022-09-16T09:09:02;2.33;;;2.13;;
40595;SDS011;26304;48.794;9.820;2022-09-16T09:15:01;2.22;;;2.00;;
40595;SDS011;26304;48.794;9.820;2022-09-16T09:20:55;2.50;;;1.75;;
40595;SDS011;26304;48.794;9.820;2022-09-16T09:26:47;3.00;;;2.17;;
40595;SDS011;26304;48.794;9.820;2022-09-16T09:32:34;2.10;;;1.90;;
40595;SDS011;26304;48.794;9.820;2022-09-16T09:38:37;2.15;;;1.80;;
40595;SDS011;26304;48.794;9.820;2022-09-16T09:44:40;2.20;;;1.42;;
40595;SDS011;26304;48.794;9.820;2022-09-16T09:50:32;2.38;;;1.90;;
40595;SDS011;26304;48.794;9.820;2022-09-16T09:56:23;2.72;;;1.95;;
40595;SDS011;26304;48.794;9.820;2022-09-16T10:02:11;2.20;;;2.00;;
40595;SDS011;26304;48.794;9.820;2022-09-16T10:07:57;3.13;;;1.92;;
40595;SDS011;26304;48.794;9.820;2022-09-16T10:13:48;2.28;;;1.80;;
40595;SDS011;26304;48.794;9.820;2022-09-16T10:19:33;1.83;;;1.73;;
40595;SDS011;26304;48.794;9.820;2022-09-16T10:25:20;2.33;;;1.60;;
40595;SDS011;26304;48.794;9.820;2022-09-16T10:31:06;1.60;;;1.50;;
40595;SDS011;26304;48.794;9.820;2022-09-16T10:36:57;2.28;;;1.80;;
40595;SDS011;26304;48.794;9.820;2022-09-16T10:42:44;2.22;;;2.03;;
40595;SDS011;26304;48.794;9.820;2022-09-16T10:48:29;2.35;;;1.75;;
40595;SDS011;26304;48.794;9.820;2022-09-16T10:54:21;2.45;;;1.90;;
40595;SDS011;26304;48.794;9.820;2022-09-16T11:00:08;2.10;;;1.92;;
40595;SDS011;26304;48.794;9.820;2022-09-16T11:06:00;3.00;;;1.85;;
40595;SDS011;26304;48.794;9.820;2022-09-16T11:11:59;2.05;;;1.73;;
40595;SDS011;26304;48.794;9.820;2022-09-16T11:18:12;1.98;;;1.83;;
40595;SDS011;26304;48.794;9.820;2022-09-16T11:30:12;3.13;;;1.67;;
40595;SDS011;26304;48.794;9.820;2022-09-16T11:42:15;1.88;;;1.45;;
40595;SDS011;26304;48.794;9.820;2022-09-16T11:48:23;2.55;;;1.80;;
40595;SDS011;26304;48.794;9.820;2022-09-16T11:54:22;2.45;;;1.73;;
40595;SDS011;26304;48.794;9.820;2022-09-16T12:00:17;3.22;;;1.67;;
40595;SDS011;26304;48.794;9.820;2022-09-16T12:06:02;5.15;;;2.10;;
40595;SDS011;26304;48.794;9.820;2022-09-16T12:11:48;2.10;;;1.80;;
40595;SDS011;26304;48.794;9.820;2022-09-16T12:17:36;4.60;;;2.20;;
40595;SDS011;26304;48.794;9.820;2022-09-16T12:23:23;2.72;;;1.70;;
40595;SDS011;26304;48.794;9.820;2022-09-16T12:29:10;2.33;;;1.83;;
40595;SDS011;26304;48.794;9.820;2022-09-16T12:34:58;2.58;;;1.85;;
40595;SDS011;26304;48.794;9.820;2022-09-16T12:40:50;4.07;;;1.98;;
40595;SDS011;26304;48.794;9.820;2022-09-16T12:46:51;2.67;;;1.90;;
40595;SDS011;26304;48.794;9.820;2022-09-16T12:52:59;1.90;;;1.80;;
40595;SDS011;26304;48.794;9.820;2022-09-16T12:59:04;2.10;;;1.88;;
40595;SDS011;26304;48.794;9.820;2022-09-16T13:04:58;2.60;;;2.10;;
40595;SDS011;26304;48.794;9.820;2022-09-16T13:10:52;3.97;;;1.67;;
40595;SDS011;26304;48.794;9.820;2022-09-16T13:16:37;2.35;;;1.70;;
40595;SDS011;26304;48.794;9.820;2022-09-16T13:22:21;2.97;;;1.60;;
40595;SDS011;26304;48.794;9.820;2022-09-16T13:28:21;2.33;;;1.42;;
40595;SDS011;26304;48.794;9.820;2022-09-16T13:34:13;2.08;;;1.60;;
40595;SDS011;26304;48.794;9.820;2022-09-16T13:40:07;1.30;;;1.20;;
40595;SDS011;26304;48.794;9.820;2022-09-16T13:46:02;1.95;;;1.27;;
40595;SDS011;26304;48.794;9.820;2022-09-16T13:51:48;3.30;;;1.40;;
40595;SDS011;26304;48.794;9.820;2022-09-16T13:57:35;2.30;;;1.40;;
40595;SDS011;26304;48.794;9.820;2022-09-16T14:03:48;1.92;;;1.50;;
40595;SDS011;26304;48.794;9.820;2022-09-16T14:09:43;1.65;;;1.30;;
40595;SDS011;26304;48.794;9.820;2022-09-16T14:15:33;1.70;;;1.27;;
40595;SDS011;26304;48.794;9.820;2022-09-16T14:21:19;1.60;;;1.50;;
40595;SDS011;26304;48.794;9.820;2022-09-16T14:27:04;3.35;;;1.67;;
40595;SDS011;26304;48.794;9.820;2022-09-16T14:32:59;1.45;;;1.35;;
40595;SDS011;26304;48.794;9.820;2022-09-16T14:38:45;1.30;;;1.20;;
40595;SDS011;26304;48.794;9.820;2022-09-16T14:44:32;3.83;;;1.70;;
40595;SDS011;26304;48.794;9.820;2022-09-16T14:50:18;3.20;;;1.55;;
40595;SDS011;26304;48.794;9.820;2022-09-16T14:56:04;2.28;;;1.30;;
40595;SDS011;26304;48.794;9.820;2022-09-16T15:01:47;2.85;;;1.58;;
40595;SDS011;26304;48.794;9.820;2022-09-16T15:07:32;1.25;;;1.15;;
40595;SDS011;26304;48.794;9.820;2022-09-16T15:13:19;1.50;;;1.40;;
40595;SDS011;26304;48.794;9.820;2022-09-16T15:19:04;1.42;;;1.13;;
40595;SDS011;26304;48.794;9.820;2022-09-16T15:24:48;2.05;;;1.42;;
40595;SDS011;26304;48.794;9.820;2022-09-16T15:30:35;1.92;;;1.40;;
40595;SDS011;26304;48.794;9.820;2022-09-16T15:36:37;2.30;;;1.60;;
40595;SDS011;26304;48.794;9.820;2022-09-16T15:42:21;1.50;;;1.40;;
40595;SDS011;26304;48.794;9.820;2022-09-16T15:48:06;1.83;;;1.63;;
40595;SDS011;26304;48.794;9.820;2022-09-16T15:53:55;3.08;;;1.40;;
40595;SDS011;26304;48.794;9.820;2022-09-16T15:59:41;2.42;;;1.50;;
40595;SDS011;26304;48.794;9.820;2022-09-16T16:05:29;2.97;;;1.65;;
40595;SDS011;26304;48.794;9.820;2022-09-16T16:11:13;1.88;;;1.67;;
40595;SDS011;26304;48.794;9.820;2022-09-16T16:16:57;1.40;;;1.30;;
40595;SDS011;26304;48.794;9.820;2022-09-16T16:22:42;1.50;;;1.40;;
40595;SDS011;26304;48.794;9.820;2022-09-16T16:28:25;2.30;;;1.50;;
40595;SDS011;26304;48.794;9.820;2022-09-16T16:34:08;1.80;;;1.40;;
40595;SDS011;26304;48.794;9.820;2022-09-16T16:39:51;2.05;;;1.40;;
40595;SDS011;26304;48.794;9.820;2022-09-16T16:45:34;5.68;;;1.60;;
40595;SDS011;26304;48.794;9.820;2022-09-16T16:51:16;1.77;;;1.40;;
40595;SDS011;26304;48.794;9.820;2022-09-16T16:57:00;1.63;;;1.35;;
40595;SDS011;26304;48.794;9.820;2022-09-16T17:02:44;1.67;;;1.23;;
40595;SDS011;26304;48.794;9.820;2022-09-16T17:08:27;2.85;;;1.42;;
40595;SDS011;26304;48.794;9.820;2022-09-16T17:14:11;2.97;;;1.50;;
40595;SDS011;26304;48.794;9.820;2022-09-16T17:19:53;2.83;;;1.90;;
40595;SDS011;26304;48.794;9.820;2022-09-16T17:25:35;4.20;;;2.53;;
40595;SDS011;26304;48.794;9.820;2022-09-16T17:31:20;4.03;;;2.63;;
40595;SDS011;26304;48.794;9.820;2022-09-16T17:37:04;5.82;;;2.97;;
40595;SDS011;26304;48.794;9.820;2022-09-16T17:42:49;4.32;;;3.53;;
40595;SDS011;26304;48.794;9.820;2022-09-16T17:48:33;7.70;;;5.05;;
40595;SDS011;26304;48.794;9.820;2022-09-16T17:54:17;6.07;;;4.40;;
40595;SDS011;26304;48.794;9.820;2022-09-16T18:00:00;3.72;;;3.30;;
40595;SDS011;26304;48.794;9.820;2022-09-16T18:05:44;3.72;;;3.00;;
40595;SDS011;26304;48.794;9.820;2022-09-16T18:11:27;3.67;;;2.40;;
40595;SDS011;26304;48.794;9.820;2022-09-16T18:17:09;4.07;;;1.90;;
40595;SDS011;26304;48.794;9.820;2022-09-16T18:22:53;1.58;;;1.30;;
40595;SDS011;26304;48.794;9.820;2022-09-16T18:28:36;2.38;;;1.40;;
40595;SDS011;26304;48.794;9.820;2022-09-16T18:34:18;2.15;;;1.35;;
40595;SDS011;26304;48.794;9.820;2022-09-16T18:40:02;0.80;;;0.80;;
40595;SDS011;26304;48.794;9.820;2022-09-16T18:45:45;1.90;;;0.70;;
40595;SDS011;26304;48.794;9.820;2022-09-16T18:51:28;2.95;;;0.70;;
40595;SDS011;26304;48.794;9.820;2022-09-16T18:57:13;1.33;;;0.60;;
40595;SDS011;26304;48.794;9.820;2022-09-16T19:02:57;1.25;;;0.80;;
40595;SDS011;26304;48.794;9.820;2022-09-16T19:08:40;2.05;;;0.77;;
40595;SDS011;26304;48.794;9.820;2022-09-16T19:14:25;2.03;;;0.82;;
40595;SDS011;26304;48.794;9.820;2022-09-16T19:20:07;2.05;;;0.98;;
40595;SDS011;26304;48.794;9.820;2022-09-16T19:25:50;1.65;;;1.00;;
40595;SDS011;26304;48.794;9.820;2022-09-16T19:31:35;2.97;;;1.35;;
40595;SDS011;26304;48.794;9.820;2022-09-16T19:37:19;1.13;;;0.95;;
40595;SDS011;26304;48.794;9.820;2022-09-16T19:43:01;1.67;;;0.85;;
40595;SDS011;26304;48.794;9.820;2022-09-16T19:48:46;1.38;;;0.80;;
40595;SDS011;26304;48.794;9.820;2022-09-16T19:54:29;1.20;;;0.90;;
40595;SDS011;26304;48.794;9.820;2022-09-16T20:00:12;1.33;;;0.80;;
40595;SDS011;26304;48.794;9.820;2022-09-16T20:06:02;0.98;;;0.90;;
40595;SDS011;26304;48.794;9.820;2022-09-16T20:11:46;2.40;;;0.90;;
40595;SDS011;26304;48.794;9.820;2022-09-16T20:17:28;0.82;;;0.80;;
40595;SDS011;26304;48.794;9.820;2022-09-16T20:23:12;1.23;;;0.90;;
40595;SDS011;26304;48.794;9.820;2022-09-16T20:28:55;1.40;;;0.77;;
40595;SDS011;26304;48.794;9.820;2022-09-16T20:34:39;1.52;;;0.77;;
40595;SDS011;26304;48.794;9.820;2022-09-16T20:40:23;0.70;;;0.70;;
40595;SDS011;26304;48.794;9.820;2022-09-16T20:46:07;0.70;;;0.70;;
40595;SDS011;26304;48.794;9.820;2022-09-16T20:51:50;1.42;;;0.60;;
40595;SDS011;26304;48.794;9.820;2022-09-16T20:57:34;2.83;;;0.80;;
40595;SDS011;26304;48.794;9.820;2022-09-16T21:03:16;1.27;;;0.65;;
40595;SDS011;26304;48.794;9.820;2022-09-16T21:09:00;0.75;;;0.60;;
40595;SDS011;26304;48.794;9.820;2022-09-16T21:14:45;1.77;;;1.02;;
40595;SDS011;26304;48.794;9.820;2022-09-16T21:20:28;0.70;;;0.70;;
40595;SDS011;26304;48.794;9.820;2022-09-16T21:26:11;0.80;;;0.80;;
40595;SDS011;26304;48.794;9.820;2022-09-16T21:31:56;1.67;;;1.00;;
40595;SDS011;26304;48.794;9.820;2022-09-16T21:37:39;1.42;;;0.85;;
40595;SDS011;26304;48.794;9.820;2022-09-16T21:43:22;1.23;;;0.90;;
40595;SDS011;26304;48.794;9.820;2022-09-16T21:49:08;1.40;;;1.30;;
40595;SDS011;26304;48.794;9.820;2022-09-16T21:54:56;1.70;;;1.10;;
40595;SDS011;26304;48.794;9.820;2022-09-16T22:00:39;1.20;;;1.10;;
40595;SDS011;26304;48.794;9.820;2022-09-16T22:06:23;1.90;;;1.15;;
40595;SDS011;26304;48.794;9.820;2022-09-16T22:12:06;1.48;;;1.00;;
40595;SDS011;26304;48.794;9.820;2022-09-16T22:17:48;1.27;;;0.95;;
40595;SDS011;26304;48.794;9.820;2022-09-16T22:23:35;1.15;;;1.05;;
40595;SDS011;26304;48.794;9.820;2022-09-16T22:29:19;1.20;;;0.93;;
40595;SDS011;26304;48.794;9.820;2022-09-16T22:35:02;1.35;;;1.10;;
40595;SDS011;26304;48.794;9.820;2022-09-16T22:40:45;0.80;;;0.77;;
40595;SDS011;26304;48.794;9.820;2022-09-16T22:46:29;1.02;;;0.90;;
40595;SDS011;26304;48.794;9.820;2022-09-16T22:52:13;0.82;;;0.77;;
40595;SDS011;26304;48.794;9.820;2022-09-16T22:57:56;0.70;;;0.70;;
40595;SDS011;26304;48.794;9.820;2022-09-16T23:03:39;0.77;;;0.70;;
40595;SDS011;26304;48.794;9.820;2022-09-16T23:09:22;1.58;;;0.80;;
40595;SDS011;26304;48.794;9.820;2022-09-16T23:15:06;0.60;;;0.60;;
40595;SDS011;26304;48.794;9.820;2022-09-16T23:20:54;0.68;;;0.68;;
40595;SDS011;26304;48.794;9.820;2022-09-16T23:26:38;0.75;;;0.70;;
40595;SDS011;26304;48.794;9.820;2022-09-16T23:32:21;1.20;;;0.60;;
40595;SDS011;26304;48.794;9.820;2022-09-16T23:38:04;1.23;;;0.60;;
40595;SDS011;26304;48.794;9.820;2022-09-16T23:43:46;1.85;;;0.95;;
40595;SDS011;26304;48.794;9.820;2022-09-16T23:49:31;0.60;;;0.60;;
40595;SDS011;26304;48.794;9.820;2022-09-16T23:55:13;1.08;;;0.60;;
